KLM1318 EPWA-EHAM
Flight info
| Callsign | KLM1318 |
|---|---|
| Flight time | 1h 39m |
| Altitude | 40000 |
| Route | LOLSI T174 INDIG DCT GOVEN DCT NORKU |
| Aircraft | B739/M-SDE2E3FGIJ1RWYZ/LB1 |
Departure
| Time | 2026-05-06 18:53 |
|---|---|
| Airport | Warsaw Chopin Airport (EPWA) |
Arrival
| Time | 2026-05-06 20:33 |
|---|---|
| Airport | Amsterdam Airport Schiphol (EHAM) |
| Time | Latitude | Longitude | Altitude | Speed | Heading |
|---|---|---|---|---|---|
| 2026-05-06 18:24 | 52.17094 | 20.97061 | 338 ft | 0 kts | 74° |
| 2026-05-06 18:42 | 52.17093 | 20.97057 | 338 ft | 3 kts | 75° |
| 2026-05-06 18:42 | 52.17087 | 20.97016 | 332 ft | 4 kts | 75° |
| 2026-05-06 18:42 | 52.17081 | 20.96985 | 334 ft | 4 kts | 54° |
| 2026-05-06 18:42 | 52.17069 | 20.96952 | 336 ft | 4 kts | 77° |
| 2026-05-06 18:43 | 52.17073 | 20.96918 | 332 ft | 4 kts | 140° |
| 2026-05-06 18:43 | 52.17094 | 20.96896 | 334 ft | 4 kts | 151° |
| 2026-05-06 18:43 | 52.17115 | 20.96877 | 338 ft | 1 kts | 152° |
| 2026-05-06 18:43 | 52.17116 | 20.96877 | 335 ft | 0 kts | 152° |
| 2026-05-06 18:45 | 52.17114 | 20.96878 | 338 ft | 2 kts | 152° |
| 2026-05-06 18:45 | 52.17067 | 20.96919 | 338 ft | 13 kts | 152° |
| 2026-05-06 18:46 | 52.16958 | 20.97015 | 338 ft | 20 kts | 152° |
| 2026-05-06 18:46 | 52.16838 | 20.97120 | 336 ft | 19 kts | 152° |
| 2026-05-06 18:46 | 52.16724 | 20.97220 | 338 ft | 16 kts | 152° |
| 2026-05-06 18:46 | 52.16668 | 20.97268 | 336 ft | 1 kts | 153° |
| 2026-05-06 18:47 | 52.16663 | 20.97272 | 338 ft | 1 kts | 152° |
| 2026-05-06 18:47 | 52.16658 | 20.97277 | 338 ft | 1 kts | 152° |
| 2026-05-06 18:47 | 52.16654 | 20.97281 | 338 ft | 1 kts | 152° |
| 2026-05-06 18:47 | 52.16653 | 20.97281 | 338 ft | 0 kts | 152° |
| 2026-05-06 18:48 | 52.16649 | 20.97284 | 338 ft | 3 kts | 152° |
| 2026-05-06 18:48 | 52.16604 | 20.97325 | 337 ft | 12 kts | 147° |
| 2026-05-06 18:48 | 52.16547 | 20.97468 | 336 ft | 16 kts | 114° |
| 2026-05-06 18:49 | 52.16501 | 20.97632 | 334 ft | 16 kts | 114° |
| 2026-05-06 18:49 | 52.16458 | 20.97791 | 335 ft | 15 kts | 115° |
| 2026-05-06 18:49 | 52.16415 | 20.97944 | 338 ft | 14 kts | 114° |
| 2026-05-06 18:49 | 52.16376 | 20.98091 | 337 ft | 14 kts | 114° |
| 2026-05-06 18:50 | 52.16338 | 20.98231 | 338 ft | 13 kts | 116° |
| 2026-05-06 18:50 | 52.16298 | 20.98364 | 334 ft | 13 kts | 116° |
| 2026-05-06 18:50 | 52.16242 | 20.98465 | 334 ft | 11 kts | 171° |
| 2026-05-06 18:50 | 52.16221 | 20.98459 | 336 ft | 0 kts | 199° |
| 2026-05-06 18:51 | 52.16220 | 20.98459 | 335 ft | 1 kts | 199° |
| 2026-05-06 18:51 | 52.16193 | 20.98439 | 335 ft | 9 kts | 204° |
| 2026-05-06 18:52 | 52.16134 | 20.98379 | 336 ft | 11 kts | 238° |
| 2026-05-06 18:52 | 52.16139 | 20.98263 | 332 ft | 10 kts | 292° |
| 2026-05-06 18:52 | 52.16143 | 20.98250 | 334 ft | 0 kts | 293° |
| 2026-05-06 18:52 | 52.16145 | 20.98243 | 337 ft | 4 kts | 294° |
| 2026-05-06 18:53 | 52.16257 | 20.97845 | 338 ft | 79 kts | 295° |
| 2026-05-06 18:53 | 52.16589 | 20.96661 | 335 ft | 147 kts | 295° |
| 2026-05-06 18:53 | 52.17079 | 20.94971 | 681 ft | 172 kts | 296° |
| 2026-05-06 18:53 | 52.17601 | 20.93193 | 1491 ft | 175 kts | 297° |
| 2026-05-06 18:54 | 52.18171 | 20.91296 | 1966 ft | 199 kts | 293° |
| 2026-05-06 18:54 | 52.18400 | 20.88975 | 2364 ft | 223 kts | 269° |
| 2026-05-06 18:54 | 52.18194 | 20.86367 | 2818 ft | 244 kts | 262° |
| 2026-05-06 18:54 | 52.17969 | 20.83522 | 3476 ft | 257 kts | 264° |
| 2026-05-06 18:55 | 52.17817 | 20.80609 | 4500 ft | 258 kts | 266° |
| 2026-05-06 18:55 | 52.17708 | 20.77675 | 5499 ft | 261 kts | 264° |
| 2026-05-06 18:55 | 52.17563 | 20.74711 | 6434 ft | 264 kts | 263° |
| 2026-05-06 18:55 | 52.17402 | 20.71719 | 7391 ft | 266 kts | 262° |
| 2026-05-06 18:56 | 52.17236 | 20.68696 | 8305 ft | 269 kts | 262° |
| 2026-05-06 18:56 | 52.17067 | 20.65636 | 9172 ft | 273 kts | 262° |
| 2026-05-06 18:56 | 52.16895 | 20.62541 | 10066 ft | 276 kts | 262° |
| 2026-05-06 18:56 | 52.16714 | 20.59305 | 10435 ft | 300 kts | 262° |
| 2026-05-06 18:57 | 52.16516 | 20.55786 | 10671 ft | 323 kts | 262° |
| 2026-05-06 18:57 | 52.16311 | 20.52123 | 11258 ft | 333 kts | 262° |
| 2026-05-06 18:57 | 52.16102 | 20.48350 | 12079 ft | 335 kts | 262° |
| 2026-05-06 18:57 | 52.15891 | 20.44562 | 12934 ft | 336 kts | 262° |
| 2026-05-06 18:58 | 52.15681 | 20.40797 | 13704 ft | 339 kts | 262° |
| 2026-05-06 18:58 | 52.15463 | 20.36902 | 14452 ft | 343 kts | 262° |
| 2026-05-06 18:58 | 52.15243 | 20.33014 | 15187 ft | 346 kts | 262° |
| 2026-05-06 18:58 | 52.15021 | 20.29099 | 15912 ft | 348 kts | 262° |
| 2026-05-06 18:59 | 52.14797 | 20.25151 | 16616 ft | 351 kts | 262° |
| 2026-05-06 18:59 | 52.14569 | 20.21179 | 17292 ft | 354 kts | 261° |
| 2026-05-06 18:59 | 52.14337 | 20.17169 | 17961 ft | 357 kts | 261° |
| 2026-05-06 18:59 | 52.14102 | 20.13126 | 18606 ft | 360 kts | 261° |
| 2026-05-06 19:00 | 52.13864 | 20.09049 | 19245 ft | 363 kts | 261° |
| 2026-05-06 19:00 | 52.13622 | 20.04947 | 19881 ft | 365 kts | 261° |
| 2026-05-06 19:00 | 52.13378 | 20.00822 | 20510 ft | 367 kts | 261° |
| 2026-05-06 19:00 | 52.13215 | 19.98068 | 20900 ft | 369 kts | 261° |
| 2026-05-06 19:01 | 52.12881 | 19.92482 | 21691 ft | 372 kts | 262° |
| 2026-05-06 19:01 | 52.12629 | 19.88324 | 22257 ft | 375 kts | 262° |
| 2026-05-06 19:01 | 52.12371 | 19.84082 | 22795 ft | 377 kts | 262° |
| 2026-05-06 19:01 | 52.12110 | 19.79812 | 23340 ft | 380 kts | 262° |
| 2026-05-06 19:02 | 52.11846 | 19.75531 | 23880 ft | 382 kts | 262° |
| 2026-05-06 19:02 | 52.11579 | 19.71214 | 24395 ft | 384 kts | 262° |
| 2026-05-06 19:02 | 52.11309 | 19.66866 | 24880 ft | 387 kts | 262° |
| 2026-05-06 19:02 | 52.11035 | 19.62493 | 25324 ft | 391 kts | 261° |
| 2026-05-06 19:03 | 52.10757 | 19.58078 | 25757 ft | 394 kts | 261° |
| 2026-05-06 19:03 | 52.10476 | 19.53630 | 26205 ft | 396 kts | 261° |
| 2026-05-06 19:03 | 52.10191 | 19.49149 | 26663 ft | 399 kts | 261° |
| 2026-05-06 19:03 | 52.09902 | 19.44638 | 27101 ft | 401 kts | 261° |
| 2026-05-06 19:04 | 52.09611 | 19.40114 | 27526 ft | 404 kts | 261° |
| 2026-05-06 19:04 | 52.09318 | 19.35610 | 27919 ft | 407 kts | 261° |
| 2026-05-06 19:04 | 52.09018 | 19.31021 | 28275 ft | 410 kts | 261° |
| 2026-05-06 19:04 | 52.08715 | 19.26399 | 28674 ft | 412 kts | 260° |
| 2026-05-06 19:05 | 52.08409 | 19.21762 | 29067 ft | 413 kts | 260° |
| 2026-05-06 19:05 | 52.08100 | 19.17103 | 29428 ft | 416 kts | 260° |
| 2026-05-06 19:05 | 52.07785 | 19.12414 | 29759 ft | 418 kts | 260° |
| 2026-05-06 19:05 | 52.07466 | 19.07690 | 30117 ft | 420 kts | 260° |
| 2026-05-06 19:06 | 52.07149 | 19.02991 | 30593 ft | 418 kts | 260° |
| 2026-05-06 19:06 | 52.06831 | 18.98304 | 31098 ft | 415 kts | 260° |
| 2026-05-06 19:06 | 52.06514 | 18.93661 | 31566 ft | 413 kts | 259° |
| 2026-05-06 19:06 | 52.06196 | 18.89034 | 31961 ft | 412 kts | 259° |
| 2026-05-06 19:07 | 52.05875 | 18.84403 | 32341 ft | 411 kts | 259° |
| 2026-05-06 19:07 | 52.05662 | 18.81346 | 32617 ft | 410 kts | 259° |
| 2026-05-06 19:07 | 52.05237 | 18.75268 | 33213 ft | 407 kts | 259° |
| 2026-05-06 19:07 | 52.04913 | 18.70708 | 33597 ft | 406 kts | 259° |
| 2026-05-06 19:08 | 52.04590 | 18.66165 | 33988 ft | 404 kts | 259° |
| 2026-05-06 19:08 | 52.04269 | 18.61642 | 34361 ft | 402 kts | 259° |
| 2026-05-06 19:08 | 52.03947 | 18.57134 | 34706 ft | 401 kts | 259° |
| 2026-05-06 19:08 | 52.03621 | 18.52631 | 34961 ft | 402 kts | 259° |
| 2026-05-06 19:09 | 52.03292 | 18.48100 | 35165 ft | 404 kts | 259° |
| 2026-05-06 19:09 | 52.02962 | 18.43560 | 35431 ft | 405 kts | 259° |
| 2026-05-06 19:09 | 52.02630 | 18.39018 | 35733 ft | 404 kts | 259° |
| 2026-05-06 19:09 | 52.02299 | 18.34488 | 36006 ft | 404 kts | 259° |
| 2026-05-06 19:10 | 52.01962 | 18.29934 | 36199 ft | 406 kts | 259° |
| 2026-05-06 19:10 | 52.01621 | 18.25382 | 36415 ft | 407 kts | 259° |
| 2026-05-06 19:10 | 52.01278 | 18.20814 | 36652 ft | 407 kts | 260° |
| 2026-05-06 19:10 | 52.00937 | 18.16264 | 36959 ft | 405 kts | 260° |
| 2026-05-06 19:11 | 52.00711 | 18.13265 | 37222 ft | 401 kts | 260° |
| 2026-05-06 19:11 | 52.00373 | 18.08798 | 37626 ft | 397 kts | 260° |
| 2026-05-06 19:11 | 52.00035 | 18.04339 | 37783 ft | 399 kts | 260° |
| 2026-05-06 19:12 | 51.99745 | 17.95263 | 37808 ft | 408 kts | 270° |
| 2026-05-06 19:12 | 52.00073 | 17.86032 | 37809 ft | 409 kts | 270° |
| 2026-05-06 19:13 | 52.00404 | 17.76793 | 37797 ft | 410 kts | 270° |
| 2026-05-06 19:13 | 52.00698 | 17.67600 | 37805 ft | 410 kts | 270° |
| 2026-05-06 19:14 | 52.00980 | 17.58344 | 37815 ft | 410 kts | 269° |
| 2026-05-06 19:14 | 52.01241 | 17.49074 | 37820 ft | 410 kts | 269° |
| 2026-05-06 19:15 | 52.01503 | 17.39839 | 37807 ft | 409 kts | 269° |
| 2026-05-06 19:15 | 52.01753 | 17.30614 | 37812 ft | 408 kts | 269° |
| 2026-05-06 19:16 | 52.01994 | 17.21411 | 37815 ft | 408 kts | 269° |
| 2026-05-06 19:16 | 52.02228 | 17.12211 | 37814 ft | 407 kts | 269° |
| 2026-05-06 19:17 | 52.02456 | 17.03031 | 37825 ft | 407 kts | 269° |
| 2026-05-06 19:17 | 52.02674 | 16.93904 | 37824 ft | 406 kts | 269° |
| 2026-05-06 19:18 | 52.02886 | 16.84729 | 37825 ft | 407 kts | 269° |
| 2026-05-06 19:18 | 52.03092 | 16.75533 | 37822 ft | 407 kts | 269° |
| 2026-05-06 19:19 | 52.03291 | 16.66335 | 37826 ft | 408 kts | 268° |
| 2026-05-06 19:19 | 52.03484 | 16.57116 | 37825 ft | 409 kts | 268° |
| 2026-05-06 19:20 | 52.03670 | 16.47874 | 37821 ft | 409 kts | 268° |
| 2026-05-06 19:20 | 52.03847 | 16.38630 | 37828 ft | 410 kts | 268° |
| 2026-05-06 19:21 | 52.04017 | 16.29421 | 37822 ft | 410 kts | 268° |
| 2026-05-06 19:21 | 52.04181 | 16.20150 | 37825 ft | 410 kts | 268° |
| 2026-05-06 19:22 | 52.04340 | 16.10865 | 37823 ft | 411 kts | 268° |
| 2026-05-06 19:22 | 52.04491 | 16.01573 | 37827 ft | 410 kts | 268° |
| 2026-05-06 19:23 | 52.04631 | 15.92305 | 37834 ft | 410 kts | 268° |
| 2026-05-06 19:23 | 52.04765 | 15.83107 | 37831 ft | 409 kts | 268° |
| 2026-05-06 19:24 | 52.04892 | 15.73859 | 37834 ft | 409 kts | 268° |
| 2026-05-06 19:24 | 52.05012 | 15.64615 | 37835 ft | 409 kts | 268° |
| 2026-05-06 19:25 | 52.05125 | 15.55361 | 37833 ft | 409 kts | 268° |
| 2026-05-06 19:25 | 52.05231 | 15.46123 | 37829 ft | 409 kts | 268° |
| 2026-05-06 19:26 | 52.05329 | 15.36882 | 37832 ft | 409 kts | 267° |
| 2026-05-06 19:26 | 52.05421 | 15.27627 | 37833 ft | 409 kts | 267° |
| 2026-05-06 19:27 | 52.05504 | 15.18381 | 37826 ft | 409 kts | 267° |
| 2026-05-06 19:27 | 52.05583 | 15.09126 | 37826 ft | 409 kts | 267° |
| 2026-05-06 19:28 | 52.05652 | 14.99864 | 37821 ft | 410 kts | 267° |
| 2026-05-06 19:28 | 52.05713 | 14.90667 | 37826 ft | 410 kts | 267° |
| 2026-05-06 19:29 | 52.05770 | 14.81404 | 37821 ft | 410 kts | 266° |
| 2026-05-06 19:29 | 52.05926 | 14.72127 | 37816 ft | 412 kts | 270° |
| 2026-05-06 19:30 | 52.06409 | 14.62833 | 37814 ft | 413 kts | 271° |
| 2026-05-06 19:30 | 52.06928 | 14.53539 | 37821 ft | 413 kts | 271° |
| 2026-05-06 19:31 | 52.07425 | 14.44237 | 37812 ft | 413 kts | 271° |
| 2026-05-06 19:31 | 52.08133 | 14.30249 | 37820 ft | 413 kts | 270° |
| 2026-05-06 19:32 | 52.08589 | 14.20940 | 37827 ft | 413 kts | 270° |
| 2026-05-06 19:32 | 52.09036 | 14.11685 | 37823 ft | 413 kts | 270° |
| 2026-05-06 19:33 | 52.09479 | 14.02359 | 37826 ft | 413 kts | 270° |
| 2026-05-06 19:33 | 52.09915 | 13.93057 | 37823 ft | 413 kts | 270° |
| 2026-05-06 19:34 | 52.10341 | 13.83743 | 37826 ft | 412 kts | 270° |
| 2026-05-06 19:34 | 52.10763 | 13.74444 | 37825 ft | 412 kts | 270° |
| 2026-05-06 19:35 | 52.11177 | 13.65143 | 37821 ft | 412 kts | 270° |
| 2026-05-06 19:35 | 52.11581 | 13.55849 | 37823 ft | 412 kts | 270° |
| 2026-05-06 19:36 | 52.11974 | 13.46545 | 37825 ft | 412 kts | 270° |
| 2026-05-06 19:36 | 52.12366 | 13.37222 | 37824 ft | 413 kts | 270° |
| 2026-05-06 19:37 | 52.12749 | 13.27956 | 37822 ft | 413 kts | 270° |
| 2026-05-06 19:37 | 52.13067 | 13.20124 | 37827 ft | 414 kts | 270° |
| 2026-05-06 19:38 | 52.13496 | 13.09251 | 37842 ft | 415 kts | 270° |
| 2026-05-06 19:38 | 52.13859 | 12.99860 | 37845 ft | 416 kts | 269° |
| 2026-05-06 19:39 | 52.14218 | 12.90446 | 37843 ft | 417 kts | 269° |
| 2026-05-06 19:39 | 52.14570 | 12.80996 | 37841 ft | 418 kts | 269° |
| 2026-05-06 19:40 | 52.14915 | 12.71526 | 37844 ft | 419 kts | 269° |
| 2026-05-06 19:40 | 52.15252 | 12.62036 | 37838 ft | 420 kts | 269° |
| 2026-05-06 19:41 | 52.15581 | 12.52523 | 37833 ft | 421 kts | 269° |
| 2026-05-06 19:41 | 52.15905 | 12.42994 | 37836 ft | 421 kts | 269° |
| 2026-05-06 19:42 | 52.16223 | 12.33459 | 37830 ft | 422 kts | 269° |
| 2026-05-06 19:42 | 52.16532 | 12.23915 | 37835 ft | 422 kts | 269° |
| 2026-05-06 19:43 | 52.16830 | 12.14420 | 37837 ft | 422 kts | 269° |
| 2026-05-06 19:43 | 52.17123 | 12.04864 | 37828 ft | 423 kts | 269° |
| 2026-05-06 19:44 | 52.17411 | 11.95291 | 37827 ft | 423 kts | 269° |
| 2026-05-06 19:44 | 52.17689 | 11.85733 | 37824 ft | 422 kts | 269° |
| 2026-05-06 19:45 | 52.17957 | 11.76196 | 37823 ft | 421 kts | 269° |
| 2026-05-06 19:45 | 52.18219 | 11.66667 | 37826 ft | 421 kts | 268° |
| 2026-05-06 19:46 | 52.18473 | 11.57143 | 37831 ft | 420 kts | 269° |
| 2026-05-06 19:46 | 52.18719 | 11.47648 | 37831 ft | 419 kts | 268° |
| 2026-05-06 19:47 | 52.18956 | 11.38156 | 37836 ft | 419 kts | 268° |
| 2026-05-06 19:47 | 52.19186 | 11.28723 | 37829 ft | 419 kts | 268° |
| 2026-05-06 19:48 | 52.19408 | 11.19211 | 37835 ft | 420 kts | 268° |
| 2026-05-06 19:48 | 52.19622 | 11.09691 | 37834 ft | 421 kts | 268° |
| 2026-05-06 19:49 | 52.19829 | 11.00136 | 37836 ft | 422 kts | 268° |
| 2026-05-06 19:49 | 52.20031 | 10.90565 | 37834 ft | 423 kts | 268° |
| 2026-05-06 19:50 | 52.20225 | 10.80965 | 37834 ft | 423 kts | 268° |
| 2026-05-06 19:50 | 52.20413 | 10.71422 | 37830 ft | 424 kts | 268° |
| 2026-05-06 19:51 | 52.20591 | 10.61810 | 37837 ft | 424 kts | 268° |
| 2026-05-06 19:51 | 52.20761 | 10.52191 | 37833 ft | 425 kts | 268° |
| 2026-05-06 19:52 | 52.20923 | 10.42559 | 37831 ft | 425 kts | 268° |
| 2026-05-06 19:52 | 52.21079 | 10.32917 | 37834 ft | 425 kts | 268° |
| 2026-05-06 19:53 | 52.21228 | 10.23270 | 37834 ft | 425 kts | 268° |
| 2026-05-06 19:53 | 52.21367 | 10.13630 | 37832 ft | 426 kts | 268° |
| 2026-05-06 19:54 | 52.21498 | 10.03966 | 37840 ft | 425 kts | 268° |
| 2026-05-06 19:54 | 52.21622 | 9.94380 | 37845 ft | 424 kts | 268° |
| 2026-05-06 19:55 | 52.21738 | 9.84773 | 37850 ft | 423 kts | 268° |
| 2026-05-06 19:55 | 52.21843 | 9.75174 | 37849 ft | 423 kts | 268° |
| 2026-05-06 19:56 | 52.21929 | 9.67195 | 37848 ft | 423 kts | 268° |
| 2026-05-06 19:56 | 52.22037 | 9.56037 | 37851 ft | 423 kts | 268° |
| 2026-05-06 19:57 | 52.22107 | 9.48052 | 37851 ft | 423 kts | 268° |
| 2026-05-06 19:57 | 52.22186 | 9.38435 | 37854 ft | 424 kts | 268° |
| 2026-05-06 19:58 | 52.22257 | 9.28820 | 37857 ft | 424 kts | 268° |
| 2026-05-06 19:58 | 52.22319 | 9.19209 | 37864 ft | 424 kts | 268° |
| 2026-05-06 19:59 | 52.22374 | 9.09588 | 37866 ft | 424 kts | 267° |
| 2026-05-06 19:59 | 52.22422 | 8.99954 | 37860 ft | 425 kts | 267° |
| 2026-05-06 20:00 | 52.22460 | 8.90371 | 37860 ft | 425 kts | 268° |
| 2026-05-06 20:00 | 52.22493 | 8.80734 | 37864 ft | 425 kts | 267° |
| 2026-05-06 20:01 | 52.22515 | 8.71083 | 37864 ft | 425 kts | 267° |
| 2026-05-06 20:01 | 52.22531 | 8.61420 | 37861 ft | 426 kts | 267° |
| 2026-05-06 20:02 | 52.22539 | 8.51741 | 37868 ft | 427 kts | 267° |
| 2026-05-06 20:02 | 52.22539 | 8.42047 | 37878 ft | 427 kts | 267° |
| 2026-05-06 20:03 | 52.22530 | 8.32351 | 37883 ft | 428 kts | 267° |
| 2026-05-06 20:03 | 52.22515 | 8.22636 | 37888 ft | 428 kts | 267° |
| 2026-05-06 20:04 | 52.22492 | 8.12976 | 37898 ft | 428 kts | 267° |
| 2026-05-06 20:04 | 52.22459 | 8.03251 | 37903 ft | 428 kts | 267° |
| 2026-05-06 20:05 | 52.22423 | 7.93661 | 37886 ft | 409 kts | 266° |
| 2026-05-06 20:05 | 52.22404 | 7.89120 | 37880 ft | 393 kts | 266° |
| 2026-05-06 20:05 | 52.22384 | 7.84753 | 37889 ft | 377 kts | 266° |
| 2026-05-06 20:06 | 52.22363 | 7.80553 | 37888 ft | 365 kts | 266° |
| 2026-05-06 20:06 | 52.22338 | 7.76423 | 37908 ft | 366 kts | 266° |
| 2026-05-06 20:06 | 52.22279 | 7.68001 | 37925 ft | 377 kts | 266° |
| 2026-05-06 20:07 | 52.22214 | 7.59387 | 37934 ft | 387 kts | 266° |
| 2026-05-06 20:07 | 52.22146 | 7.50578 | 37916 ft | 388 kts | 266° |
| 2026-05-06 20:08 | 52.22072 | 7.41778 | 37912 ft | 388 kts | 266° |
| 2026-05-06 20:08 | 52.21993 | 7.33034 | 37693 ft | 381 kts | 266° |
| 2026-05-06 20:09 | 52.21952 | 7.28725 | 37025 ft | 383 kts | 266° |
| 2026-05-06 20:09 | 52.21906 | 7.24293 | 35890 ft | 398 kts | 266° |
| 2026-05-06 20:09 | 52.21855 | 7.19680 | 34631 ft | 414 kts | 267° |
| 2026-05-06 20:09 | 52.21802 | 7.14893 | 33204 ft | 430 kts | 267° |
| 2026-05-06 20:10 | 52.21761 | 7.10006 | 31984 ft | 432 kts | 270° |
| 2026-05-06 20:10 | 52.22081 | 7.05146 | 30959 ft | 431 kts | 279° |
| 2026-05-06 20:10 | 52.22868 | 7.00490 | 29672 ft | 433 kts | 287° |
| 2026-05-06 20:10 | 52.23854 | 6.95769 | 28378 ft | 434 kts | 287° |
| 2026-05-06 20:11 | 52.24820 | 6.91182 | 27300 ft | 430 kts | 287° |
| 2026-05-06 20:11 | 52.25778 | 6.86599 | 26334 ft | 422 kts | 287° |
| 2026-05-06 20:11 | 52.26707 | 6.82090 | 25363 ft | 416 kts | 287° |
| 2026-05-06 20:11 | 52.27623 | 6.77591 | 24572 ft | 416 kts | 287° |
| 2026-05-06 20:12 | 52.28524 | 6.73128 | 23996 ft | 410 kts | 287° |
| 2026-05-06 20:12 | 52.29406 | 6.68733 | 23437 ft | 404 kts | 287° |
| 2026-05-06 20:12 | 52.30273 | 6.64394 | 22819 ft | 399 kts | 287° |
| 2026-05-06 20:12 | 52.31130 | 6.60090 | 22158 ft | 396 kts | 287° |
| 2026-05-06 20:13 | 52.31978 | 6.55815 | 21514 ft | 393 kts | 287° |
| 2026-05-06 20:13 | 52.32815 | 6.51587 | 20907 ft | 389 kts | 287° |
| 2026-05-06 20:13 | 52.33633 | 6.47454 | 20310 ft | 386 kts | 287° |
| 2026-05-06 20:13 | 52.34457 | 6.43288 | 19685 ft | 382 kts | 287° |
| 2026-05-06 20:14 | 52.35198 | 6.39148 | 19088 ft | 378 kts | 280° |
| 2026-05-06 20:14 | 52.35389 | 6.34934 | 18846 ft | 364 kts | 267° |
| 2026-05-06 20:14 | 52.35108 | 6.30889 | 18579 ft | 353 kts | 257° |
| 2026-05-06 20:14 | 52.34534 | 6.27048 | 18324 ft | 343 kts | 256° |
| 2026-05-06 20:15 | 52.33958 | 6.23313 | 18067 ft | 334 kts | 258° |
| 2026-05-06 20:15 | 52.33757 | 6.19582 | 17807 ft | 326 kts | 269° |
| 2026-05-06 20:15 | 52.33766 | 6.15921 | 17558 ft | 320 kts | 270° |
| 2026-05-06 20:15 | 52.33790 | 6.12283 | 17308 ft | 318 kts | 270° |
| 2026-05-06 20:16 | 52.33813 | 6.08672 | 17060 ft | 317 kts | 270° |
| 2026-05-06 20:16 | 52.33829 | 6.05071 | 16810 ft | 316 kts | 270° |
| 2026-05-06 20:16 | 52.33838 | 6.01477 | 16563 ft | 316 kts | 270° |
| 2026-05-06 20:16 | 52.33843 | 5.97932 | 16317 ft | 315 kts | 270° |
| 2026-05-06 20:17 | 52.33845 | 5.94349 | 16066 ft | 315 kts | 270° |
| 2026-05-06 20:17 | 52.33844 | 5.90768 | 15817 ft | 315 kts | 270° |
| 2026-05-06 20:17 | 52.33841 | 5.87196 | 15569 ft | 314 kts | 270° |
| 2026-05-06 20:17 | 52.33836 | 5.83623 | 15331 ft | 314 kts | 270° |
| 2026-05-06 20:18 | 52.33830 | 5.80049 | 15073 ft | 314 kts | 271° |
| 2026-05-06 20:18 | 52.33822 | 5.76477 | 14821 ft | 314 kts | 271° |
| 2026-05-06 20:18 | 52.33813 | 5.72905 | 14574 ft | 314 kts | 271° |
| 2026-05-06 20:18 | 52.33803 | 5.69344 | 14325 ft | 314 kts | 271° |
| 2026-05-06 20:19 | 52.33792 | 5.65779 | 14073 ft | 313 kts | 271° |
| 2026-05-06 20:19 | 52.33779 | 5.62217 | 13818 ft | 313 kts | 271° |
| 2026-05-06 20:19 | 52.33766 | 5.58658 | 13575 ft | 312 kts | 271° |
| 2026-05-06 20:19 | 52.33752 | 5.55109 | 13326 ft | 312 kts | 271° |
| 2026-05-06 20:20 | 52.33738 | 5.51567 | 13075 ft | 311 kts | 271° |
| 2026-05-06 20:20 | 52.33721 | 5.48037 | 12825 ft | 310 kts | 271° |
| 2026-05-06 20:20 | 52.33704 | 5.44525 | 12574 ft | 309 kts | 271° |
| 2026-05-06 20:20 | 52.33686 | 5.41018 | 12323 ft | 307 kts | 271° |
| 2026-05-06 20:21 | 52.33601 | 5.37533 | 12060 ft | 308 kts | 262° |
| 2026-05-06 20:21 | 52.32920 | 5.34259 | 11823 ft | 308 kts | 247° |
| 2026-05-06 20:21 | 52.32052 | 5.31057 | 11577 ft | 307 kts | 249° |
| 2026-05-06 20:21 | 52.31219 | 5.27853 | 11321 ft | 306 kts | 249° |
| 2026-05-06 20:22 | 52.30391 | 5.24657 | 11033 ft | 304 kts | 249° |
| 2026-05-06 20:22 | 52.29572 | 5.21499 | 10666 ft | 301 kts | 249° |
| 2026-05-06 20:22 | 52.28756 | 5.18368 | 10289 ft | 299 kts | 249° |
| 2026-05-06 20:22 | 52.27940 | 5.15248 | 10021 ft | 296 kts | 248° |
| 2026-05-06 20:23 | 52.27136 | 5.12185 | 9745 ft | 293 kts | 248° |
| 2026-05-06 20:23 | 52.26335 | 5.09128 | 9354 ft | 293 kts | 248° |
| 2026-05-06 20:23 | 52.25529 | 5.06059 | 8990 ft | 294 kts | 249° |
| 2026-05-06 20:23 | 52.24814 | 5.02950 | 8663 ft | 292 kts | 252° |
| 2026-05-06 20:24 | 52.24147 | 4.99834 | 8358 ft | 290 kts | 252° |
| 2026-05-06 20:24 | 52.23485 | 4.96722 | 8027 ft | 290 kts | 252° |
| 2026-05-06 20:24 | 52.22827 | 4.93616 | 7707 ft | 288 kts | 252° |
| 2026-05-06 20:24 | 52.22172 | 4.90524 | 7379 ft | 289 kts | 252° |
| 2026-05-06 20:25 | 52.21562 | 4.87432 | 7104 ft | 285 kts | 256° |
| 2026-05-06 20:25 | 52.21049 | 4.84317 | 6770 ft | 284 kts | 257° |
| 2026-05-06 20:25 | 52.20553 | 4.81210 | 6410 ft | 283 kts | 257° |
| 2026-05-06 20:25 | 52.20067 | 4.78146 | 6056 ft | 282 kts | 257° |
| 2026-05-06 20:26 | 52.19569 | 4.75010 | 5675 ft | 282 kts | 257° |
| 2026-05-06 20:26 | 52.19086 | 4.71980 | 5349 ft | 278 kts | 257° |
| 2026-05-06 20:26 | 52.18599 | 4.68944 | 4829 ft | 277 kts | 257° |
| 2026-05-06 20:26 | 52.18118 | 4.65956 | 4476 ft | 269 kts | 257° |
| 2026-05-06 20:27 | 52.17644 | 4.63047 | 4028 ft | 262 kts | 257° |
| 2026-05-06 20:27 | 52.17171 | 4.60180 | 3401 ft | 261 kts | 257° |
| 2026-05-06 20:27 | 52.16718 | 4.57426 | 3224 ft | 241 kts | 258° |
| 2026-05-06 20:27 | 52.16669 | 4.54864 | 3017 ft | 218 kts | 294° |
| 2026-05-06 20:28 | 52.17533 | 4.53034 | 2734 ft | 199 kts | 330° |
| 2026-05-06 20:28 | 52.18729 | 4.52064 | 2503 ft | 183 kts | 350° |
| 2026-05-06 20:28 | 52.19874 | 4.52347 | 2331 ft | 164 kts | 38° |
| 2026-05-06 20:28 | 52.20705 | 4.53623 | 2292 ft | 167 kts | 44° |
| 2026-05-06 20:29 | 52.21497 | 4.55056 | 2209 ft | 172 kts | 50° |
| 2026-05-06 20:29 | 52.22256 | 4.56591 | 2093 ft | 174 kts | 51° |
| 2026-05-06 20:29 | 52.22953 | 4.58193 | 2033 ft | 174 kts | 55° |
| 2026-05-06 20:29 | 52.23609 | 4.59861 | 1926 ft | 175 kts | 56° |
| 2026-05-06 20:30 | 52.24221 | 4.61460 | 1724 ft | 160 kts | 57° |
| 2026-05-06 20:30 | 52.25308 | 4.64307 | 1346 ft | 146 kts | 56° |
| 2026-05-06 20:30 | 52.25847 | 4.65718 | 1148 ft | 146 kts | 57° |
| 2026-05-06 20:31 | 52.26374 | 4.67110 | 938 ft | 144 kts | 57° |
| 2026-05-06 20:31 | 52.26893 | 4.68505 | 740 ft | 143 kts | 57° |
| 2026-05-06 20:31 | 52.27428 | 4.69869 | 568 ft | 142 kts | 56° |
| 2026-05-06 20:31 | 52.27950 | 4.71235 | 387 ft | 141 kts | 57° |
| 2026-05-06 20:32 | 52.28474 | 4.72581 | 198 ft | 139 kts | 57° |
| 2026-05-06 20:32 | 52.28990 | 4.73927 | 40 ft | 143 kts | 57° |
| 2026-05-06 20:32 | 52.29489 | 4.75227 | -4 ft | 119 kts | 58° |
| 2026-05-06 20:32 | 52.29848 | 4.76161 | -5 ft | 75 kts | 58° |
| 2026-05-06 20:33 | 52.30072 | 4.76741 | -3 ft | 50 kts | 57° |
| 2026-05-06 20:33 | 52.30205 | 4.77086 | -4 ft | 30 kts | 57° |
| 2026-05-06 20:33 | 52.30325 | 4.77308 | -5 ft | 25 kts | 37° |
| 2026-05-06 20:33 | 52.30470 | 4.77407 | -3 ft | 21 kts | 343° |
| 2026-05-06 20:34 | 52.30580 | 4.77273 | -2 ft | 17 kts | 274° |
| 2026-05-06 20:34 | 52.30523 | 4.77113 | -2 ft | 16 kts | 237° |
| 2026-05-06 20:34 | 52.30504 | 4.76960 | -2 ft | 14 kts | 288° |
| 2026-05-06 20:34 | 52.30534 | 4.76844 | -2 ft | 5 kts | 294° |
| 2026-05-06 20:35 | 52.30543 | 4.76810 | -2 ft | 3 kts | 293° |
| 2026-05-06 20:35 | 52.30545 | 4.76804 | -2 ft | 0 kts | 294° |